Time;durP1;ratioP1;P1;durP2;ratioP2;P2;SDS_P1;SDS_P2;PMS_P1;PMS_P2;Temp;Humidity;BMP_temperature;BMP_pressure;BME280_temperature;BME280_humidity;BME280_pressure;Samples;Min_cycle;Max_cycle;Signal;HPM_P1;HPM_P2
2021/12/30 18:13:50;;;;;;;54.65;20.17;;;;;;;8.11;68.42;100473.09;4371118;28;20460;-85
2021/12/30 18:16:18;;;;;;;58.15;21.83;;;;;;;7.87;69.27;100476.28;4256429;33;33711;-85
2021/12/30 18:18:46;;;;;;;51.45;20.95;;;;;;;7.88;69.26;100468.38;4255068;33;33362;-84
2021/12/30 18:21:14;;;;;;;54.47;22.80;;;;;;;8.12;68.54;100468.72;4259836;33;33703;-85
2021/12/30 18:23:42;;;;;;;45.83;20.45;;;;;;;8.11;68.39;100466.97;4240853;33;33142;-85
2021/12/30 18:26:10;;;;;;;52.72;21.23;;;;;;;8.28;68.00;100464.81;4247870;33;33662;-85
2021/12/30 18:28:38;;;;;;;55.28;23.27;;;;;;;8.48;67.21;100460.87;4261491;33;34194;-84
2021/12/30 18:31:06;;;;;;;55.38;22.50;;;;;;;8.47;66.83;100465.28;4250772;33;32242;-85
2021/12/30 18:33:34;;;;;;;51.72;21.27;;;;;;;8.15;68.11;100463.38;4259689;33;34033;-85
2021/12/30 18:36:03;;;;;;;52.60;24.40;;;;;;;8.33;67.86;100465.56;4260113;33;33546;-84
2021/12/30 18:38:31;;;;;;;66.32;25.02;;;;;;;8.48;67.07;100472.25;4263975;33;31762;-85
2021/12/30 18:40:59;;;;;;;67.68;27.85;;;;;;;8.51;66.90;100463.44;4261983;33;33047;-85
2021/12/30 18:43:27;;;;;;;62.47;27.15;;;;;;;8.23;67.90;100468.47;4252402;33;32941;-84
2021/12/30 18:45:56;;;;;;;76.22;29.98;;;;;;;8.13;68.31;100475.72;4250843;33;34841;-84
2021/12/30 18:48:24;;;;;;;91.40;34.78;;;;;;;7.79;69.53;100497.50;4251375;33;34179;-85
2021/12/30 18:50:52;;;;;;;136.95;47.38;;;;;;;8.03;68.92;100495.22;4270129;33;32652;-85
2021/12/30 18:53:22;;;;;;;142.80;50.45;;;;;;;8.20;68.40;100496.56;4244630;33;33013;-85
2021/12/30 18:55:50;;;;;;;67.18;31.73;;;;;;;8.20;68.44;100493.06;4250459;33;31747;-85
2021/12/30 18:58:18;;;;;;;53.67;24.12;;;;;;;8.33;68.06;100494.53;4261349;33;33944;-85
2021/12/30 19:00:49;;;;;;;50.70;20.65;;;;;;;8.26;68.13;100492.06;4237574;33;32287;-85
2021/12/30 19:03:21;;;;;;;58.90;20.43;;;;;;;8.38;67.62;100492.69;4262083;33;33683;-85
2021/12/30 19:05:49;;;;;;;46.22;16.58;;;;;;;8.30;68.02;100488.47;4258414;33;33243;-84
2021/12/30 19:08:17;;;;;;;39.95;15.90;;;;;;;8.36;67.63;100483.97;4233729;33;32663;-86
2021/12/30 19:10:45;;;;;;;65.85;23.25;;;;;;;8.23;68.15;100490.38;4249820;33;32401;-84
2021/12/30 19:13:16;;;;;;;46.33;18.52;;;;;;;8.29;67.95;100492.84;4262694;33;32911;-84
2021/12/30 19:15:48;;;;;;;52.47;19.15;;;;;;;7.99;68.71;100489.16;4253383;33;33386;-84
2021/12/30 19:18:18;;;;;;;52.13;19.92;;;;;;;8.06;68.66;100490.75;4269561;33;34442;-84
2021/12/30 19:20:46;;;;;;;35.28;15.00;;;;;;;8.19;68.08;100483.44;4247496;33;32672;-84
2021/12/30 19:23:16;;;;;;;35.53;15.75;;;;;;;8.08;68.59;100488.09;4253609;33;32996;-83
2021/12/30 19:25:44;;;;;;;35.63;15.63;;;;;;;8.05;68.53;100483.75;4261101;33;34119;-83
2021/12/30 19:28:14;;;;;;;42.08;16.73;;;;;;;7.87;69.18;100489.41;4266594;33;34287;-83
2021/12/30 19:30:43;;;;;;;52.65;20.90;;;;;;;8.08;68.59;100482.84;4254480;33;32395;-83
2021/12/30 19:33:11;;;;;;;39.95;19.00;;;;;;;7.64;70.12;100492.53;4253801;33;34686;-84
2021/12/30 19:35:40;;;;;;;54.15;23.17;;;;;;;7.68;70.07;100486.31;4248296;33;34040;-84
2021/12/30 19:38:09;;;;;;;54.53;22.45;;;;;;;8.07;68.90;100481.97;4258126;33;33442;-84
2021/12/30 19:40:52;;;;;;;51.13;21.17;;;;;;;8.07;68.78;100468.81;4264632;33;33763;-84
2021/12/30 19:43:20;;;;;;;59.13;23.27;;;;;;;8.12;68.65;100472.22;4257752;33;32430;-84
2021/12/30 19:45:48;;;;;;;86.60;32.05;;;;;;;8.38;67.84;100466.34;4250016;33;33492;-84
2021/12/30 19:48:17;;;;;;;72.37;27.58;;;;;;;8.45;67.12;100465.31;4248003;33;32789;-84
2021/12/30 19:50:47;;;;;;;62.83;27.48;;;;;;;8.41;67.56;100470.69;4255104;33;32561;-84
2021/12/30 19:53:16;;;;;;;63.20;26.35;;;;;;;8.16;68.35;100475.62;4260823;33;33261;-84
2021/12/30 19:55:44;;;;;;;59.63;25.85;;;;;;;8.18;68.43;100484.34;4260368;33;33333;-84
2021/12/30 19:58:13;;;;;;;53.63;22.75;;;;;;;8.28;68.20;100480.59;4271823;33;32881;-84
2021/12/30 20:00:47;;;;;;;53.90;22.15;;;;;;;8.28;68.38;100482.38;4258342;33;33008;-85
2021/12/30 20:03:21;;;;;;;50.60;21.48;;;;;;;8.20;68.68;100477.28;4249189;33;32975;-84
2021/12/30 20:05:52;;;;;;;39.35;18.15;;;;;;;8.06;69.05;100489.88;4246972;33;32340;-84
2021/12/30 20:08:22;;;;;;;36.45;16.85;;;;;;;8.14;68.86;100482.69;4246706;33;33575;-84
2021/12/30 20:10:50;;;;;;;34.05;15.98;;;;;;;8.21;68.74;100484.25;4259837;33;33000;-84
2021/12/30 20:13:18;;;;;;;35.15;15.98;;;;;;;8.15;69.00;100481.78;4258489;33;34523;-84
2021/12/30 20:15:46;;;;;;;26.92;14.18;;;;;;;8.24;68.77;100484.22;4263650;33;33789;-84
2021/12/30 20:18:14;;;;;;;26.33;14.40;;;;;;;8.35;68.46;100483.94;4267040;33;34842;-84
2021/12/30 20:20:41;;;;;;;31.35;14.57;;;;;;;8.46;68.02;100477.56;4264663;33;32671;-84
2021/12/30 20:23:10;;;;;;;32.08;15.80;;;;;;;8.38;68.30;100462.88;4263647;33;33843;-84
2021/12/30 20:25:39;;;;;;;36.33;18.60;;;;;;;8.52;67.71;100468.66;4252780;33;33603;-84
2021/12/30 20:28:07;;;;;;;39.60;19.40;;;;;;;8.56;67.60;100472.09;4264198;33;33883;-84
2021/12/30 20:30:37;;;;;;;42.00;20.10;;;;;;;8.53;67.86;100469.53;4249676;33;32651;-84
2021/12/30 20:33:06;;;;;;;40.80;20.02;;;;;;;8.51;68.06;100463.44;4249891;33;32467;-83
2021/12/30 20:35:37;;;;;;;42.58;17.95;;;;;;;8.40;68.32;100469.84;4249719;33;33370;-83
2021/12/30 20:38:06;;;;;;;34.65;17.45;;;;;;;8.45;68.33;100472.31;4248726;33;32486;-84
2021/12/30 20:40:35;;;;;;;32.45;17.33;;;;;;;8.51;67.97;100459.03;4252711;33;32381;-84
2021/12/30 20:43:05;;;;;;;37.30;17.17;;;;;;;8.45;68.11;100467.97;4260773;33;33566;-84
2021/12/30 20:45:34;;;;;;;57.10;22.27;;;;;;;8.47;68.08;100460.00;4263544;33;33995;-84
2021/12/30 20:48:05;;;;;;;43.17;20.95;;;;;;;8.55;67.92;100457.19;4250530;33;32260;-83
2021/12/30 20:50:37;;;;;;;41.33;20.48;;;;;;;8.66;67.48;100455.16;4261999;33;32041;-83
2021/12/30 20:53:06;;;;;;;38.38;19.60;;;;;;;8.76;67.21;100456.66;4250011;33;32929;-83
2021/12/30 20:55:38;;;;;;;37.45;19.50;;;;;;;8.85;66.91;100455.53;4264378;33;31099;-83
2021/12/30 20:58:08;;;;;;;38.45;19.87;;;;;;;8.66;67.53;100456.03;4248597;33;34094;-84
2021/12/30 21:00:38;;;;;;;49.45;21.27;;;;;;;8.70;67.57;100452.41;4264175;33;33527;-84
2021/12/30 21:03:06;;;;;;;44.42;20.98;;;;;;;8.46;68.34;100453.87;4259935;33;33460;-84
2021/12/30 21:05:35;;;;;;;44.72;21.65;;;;;;;8.54;68.39;100451.03;4260123;33;33221;-84
2021/12/30 21:08:05;;;;;;;44.60;20.25;;;;;;;8.45;68.80;100454.78;4264904;33;33904;-84
2021/12/30 21:10:37;;;;;;;69.43;31.52;;;;;;;8.39;69.15;100449.66;4252741;33;34536;-84
2021/12/30 21:13:06;;;;;;;66.62;28.52;;;;;;;8.26;69.49;100444.69;4261323;33;33305;-84
2021/12/30 21:15:36;;;;;;;65.47;28.08;;;;;;;8.40;69.29;100447.88;4247685;33;33248;-84
2021/12/30 21:18:05;;;;;;;62.47;28.90;;;;;;;8.55;68.83;100438.78;4264389;33;33343;-83
2021/12/30 21:20:38;;;;;;;47.90;23.10;;;;;;;8.61;68.68;100435.97;4260955;33;32233;-84
2021/12/30 21:23:11;;;;;;;38.08;20.40;;;;;;;8.54;68.89;100444.91;4259110;33;33850;-84
2021/12/30 21:25:39;;;;;;;43.13;19.67;;;;;;;8.61;68.69;100447.37;4262318;33;33327;-84
2021/12/30 21:28:07;;;;;;;48.97;21.55;;;;;;;8.71;68.38;100453.28;4246084;33;33850;-84
2021/12/30 21:30:37;;;;;;;43.10;20.17;;;;;;;8.96;67.46;100451.72;4262312;33;33276;-84
2021/12/30 21:33:09;;;;;;;57.95;25.30;;;;;;;8.85;67.89;100451.13;4258437;33;32632;-84
2021/12/30 21:35:39;;;;;;;51.77;23.57;;;;;;;8.80;67.91;100449.53;4263431;33;34498;-83
2021/12/30 21:38:07;;;;;;;52.35;23.40;;;;;;;8.80;67.85;100447.75;4250374;33;33482;-83
2021/12/30 21:40:37;;;;;;;46.60;23.40;;;;;;;8.83;67.77;100442.44;4263217;33;32280;-84
2021/12/30 21:43:05;;;;;;;46.70;22.73;;;;;;;8.84;67.73;100449.41;4259881;33;32864;-84
2021/12/30 21:45:33;;;;;;;53.42;22.48;;;;;;;8.93;67.69;100453.59;4261635;33;33644;-84
2021/12/30 21:48:00;;;;;;;47.60;21.75;;;;;;;8.86;67.84;100452.88;4262399;33;34876;-84
2021/12/30 21:50:28;;;;;;;40.80;20.90;;;;;;;8.71;68.54;100455.91;4248094;33;33408;-84
2021/12/30 21:52:56;;;;;;;42.85;20.00;;;;;;;8.75;68.50;100448.78;4250226;33;34657;-84
2021/12/30 21:55:24;;;;;;;40.80;20.95;;;;;;;8.91;68.06;100453.59;4262386;33;33813;-84
2021/12/30 21:57:53;;;;;;;41.60;21.48;;;;;;;8.98;67.74;100449.91;4249743;33;33366;-84
2021/12/30 22:00:22;;;;;;;42.10;21.42;;;;;;;8.79;68.48;100440.78;4249665;33;34664;-84
2021/12/30 22:02:51;;;;;;;39.00;20.58;;;;;;;8.86;68.35;100442.34;4263406;33;34232;-83
2021/12/30 22:05:28;;;;;;;44.75;20.85;;;;;;;8.90;68.29;100438.72;4249826;33;33391;-83
2021/12/30 22:07:57;;;;;;;47.28;19.62;;;;;;;8.94;68.28;100437.72;4250007;33;33344;-83
2021/12/30 22:10:25;;;;;;;40.42;20.85;;;;;;;9.06;67.99;100433.03;4264204;33;34246;-83
2021/12/30 22:12:53;;;;;;;40.03;21.98;;;;;;;9.05;67.89;100432.16;4248744;33;34721;-84
2021/12/30 22:15:20;;;;;;;43.45;21.25;;;;;;;9.10;67.83;100434.69;4251894;33;32901;-83
2021/12/30 22:17:48;;;;;;;39.55;20.73;;;;;;;9.17;67.65;100430.97;4260680;33;33726;-84
2021/12/30 22:20:19;;;;;;;51.90;23.12;;;;;;;9.35;66.96;100430.47;4250175;33;33893;-83
2021/12/30 22:22:49;;;;;;;45.08;22.48;;;;;;;9.23;67.24;100430.78;4262186;33;33690;-84
2021/12/30 22:25:17;;;;;;;46.45;22.25;;;;;;;9.32;67.05;100421.78;4261682;33;34007;-84
2021/12/30 22:27:46;;;;;;;46.47;22.25;;;;;;;9.20;67.29;100425.59;4259524;33;34081;-84
2021/12/30 22:30:14;;;;;;;45.67;22.30;;;;;;;9.09;67.79;100427.69;4261305;33;33039;-84
2021/12/30 22:32:42;;;;;;;43.17;21.62;;;;;;;9.07;67.86;100418.94;4261932;33;33519;-84
2021/12/30 22:35:10;;;;;;;41.05;20.77;;;;;;;9.05;67.97;100423.41;4261675;33;31460;-83
2021/12/30 22:37:39;;;;;;;38.20;20.75;;;;;;;9.06;67.93;100423.34;4260912;33;32952;-84
2021/12/30 22:40:09;;;;;;;38.03;20.30;;;;;;;9.08;67.85;100425.97;4249163;33;33725;-83
2021/12/30 22:42:36;;;;;;;45.67;20.80;;;;;;;9.12;67.79;100423.19;4253952;33;32586;-83
2021/12/30 22:45:06;;;;;;;38.78;21.05;;;;;;;9.14;67.79;100425.78;4264511;33;33487;-83
2021/12/30 22:47:35;;;;;;;34.15;18.98;;;;;;;9.11;67.95;100425.84;4267664;33;33403;-82
2021/12/30 22:50:03;;;;;;;36.70;19.25;;;;;;;9.30;67.29;100421.78;4266140;33;33677;-83
2021/12/30 22:52:32;;;;;;;43.20;22.70;;;;;;;9.28;67.32;100428.03;4266633;33;33321;-83
2021/12/30 22:55:01;;;;;;;45.70;22.62;;;;;;;9.21;67.46;100427.34;4267996;33;34851;-83
2021/12/30 22:57:29;;;;;;;39.90;21.45;;;;;;;8.95;68.29;100428.06;4254213;33;33824;-83
2021/12/30 22:59:57;;;;;;;46.50;23.12;;;;;;;9.32;67.22;100433.19;4268141;33;33621;-83
2021/12/30 23:02:24;;;;;;;53.75;24.70;;;;;;;9.06;67.90;100425.12;4267799;33;33563;-82
2021/12/30 23:04:52;;;;;;;57.33;27.05;;;;;;;9.13;67.71;100424.94;4265061;33;33561;-83
2021/12/30 23:07:20;;;;;;;55.67;26.77;;;;;;;9.00;68.20;100422.66;4267822;33;34722;-84
2021/12/30 23:09:48;;;;;;;45.42;22.73;;;;;;;9.09;67.95;100425.06;4267056;33;33300;-84
2021/12/30 23:12:15;;;;;;;49.45;23.85;;;;;;;9.16;67.79;100423.97;4256059;33;32827;-83
2021/12/30 23:14:46;;;;;;;51.00;25.85;;;;;;;9.19;67.68;100408.06;4267413;33;34479;-84
2021/12/30 23:17:13;;;;;;;43.72;22.98;;;;;;;9.13;67.95;100418.78;4268126;33;33478;-84
2021/12/30 23:19:41;;;;;;;39.55;22.58;;;;;;;9.16;67.82;100418.69;4266455;33;33636;-84
2021/12/30 23:22:09;;;;;;;39.60;21.37;;;;;;;9.26;67.46;100409.66;4266372;33;32734;-83
2021/12/30 23:24:36;;;;;;;43.90;21.60;;;;;;;9.22;67.59;100402.72;4268797;33;33642;-84
2021/12/30 23:27:04;;;;;;;41.05;23.10;;;;;;;9.07;68.04;100403.13;4267215;33;32819;-84
2021/12/30 23:29:32;;;;;;;36.50;19.85;;;;;;;9.20;67.70;100408.03;4267656;33;33624;-84
2021/12/30 23:31:59;;;;;;;38.65;22.08;;;;;;;9.30;67.35;100400.72;4266516;33;33359;-84
2021/12/30 23:34:27;;;;;;;40.10;19.25;;;;;;;9.30;67.33;100405.12;4267386;33;33696;-84
2021/12/30 23:36:55;;;;;;;37.45;21.95;;;;;;;9.27;67.45;100395.56;4266849;33;32701;-84
2021/12/30 23:39:22;;;;;;;34.90;19.20;;;;;;;9.19;67.75;100394.91;4267092;33;34189;-84
2021/12/30 23:41:50;;;;;;;32.63;19.58;;;;;;;9.25;67.60;100397.34;4255155;33;32656;-83
2021/12/30 23:44:19;;;;;;;42.78;21.08;;;;;;;9.29;67.52;100395.50;4266308;33;33659;-83
2021/12/30 23:46:47;;;;;;;35.22;20.60;;;;;;;9.06;68.24;100391.75;4268357;33;34456;-84
2021/12/30 23:49:14;;;;;;;33.67;19.17;;;;;;;9.04;68.37;100392.69;4266145;33;33754;-83
2021/12/30 23:51:42;;;;;;;38.25;20.67;;;;;;;9.20;67.79;100388.72;4249522;33;35485;-83
2021/12/30 23:54:10;;;;;;;38.03;19.37;;;;;;;9.05;68.21;100394.44;4256964;33;33246;-83
2021/12/30 23:56:37;;;;;;;36.72;19.30;;;;;;;9.07;68.11;100400.50;4267677;33;34911;-84
2021/12/30 23:59:05;;;;;;;38.17;19.75;;;;;;;9.08;68.07;100389.94;4266795;33;33206;-82
